Time;durP1;ratioP1;P1;durP2;ratioP2;P2;SDS_P1;SDS_P2;PMS_P1;PMS_P2;Temp;Humidity;BMP_temperature;BMP_pressure;BME280_temperature;BME280_humidity;BME280_pressure;Samples;Min_cycle;Max_cycle;Signal;HPM_P1;HPM_P2
2022/08/31 00:05:39;;;;;;;1.45;0.80;;;16.10;87.30;;;;;;5051228;28;20509;-76
2022/08/31 00:08:06;;;;;;;1.45;0.70;;;16.00;87.30;;;;;;5019783;28;20034;-75
2022/08/31 00:10:31;;;;;;;0.88;0.70;;;16.00;87.40;;;;;;5047234;28;20032;-76
2022/08/31 00:12:57;;;;;;;0.63;0.60;;;15.90;87.40;;;;;;5053340;28;20453;-76
2022/08/31 00:15:24;;;;;;;1.33;0.70;;;15.80;87.40;;;;;;5036631;28;20051;-76
2022/08/31 00:17:51;;;;;;;1.10;0.60;;;16.00;87.60;;;;;;5031328;28;20040;-75
2022/08/31 00:20:19;;;;;;;0.98;0.80;;;15.90;87.60;;;;;;5030174;28;20491;-76
2022/08/31 00:22:45;;;;;;;1.02;0.70;;;15.80;87.60;;;;;;5053271;28;20045;-76
2022/08/31 00:25:11;;;;;;;0.90;0.75;;;15.90;87.80;;;;;;5053053;28;20043;-76
2022/08/31 00:27:36;;;;;;;0.70;0.60;;;15.70;87.70;;;;;;5041923;28;20038;-76
2022/08/31 00:30:04;;;;;;;0.85;0.60;;;15.70;87.90;;;;;;5035176;28;20029;-76
2022/08/31 00:32:30;;;;;;;1.00;0.80;;;15.70;87.90;;;;;;5049779;28;20182;-76
2022/08/31 00:34:56;;;;;;;1.30;0.65;;;15.70;87.90;;;;;;5033054;28;20518;-76
2022/08/31 00:37:21;;;;;;;0.93;0.68;;;15.60;87.90;;;;;;5032872;28;20045;-76
2022/08/31 00:39:47;;;;;;;0.85;0.60;;;15.50;87.90;;;;;;5023133;28;20377;-76
2022/08/31 00:42:12;;;;;;;0.88;0.70;;;15.60;88.00;;;;;;5024572;28;20044;-76
2022/08/31 00:44:39;;;;;;;0.75;0.70;;;15.50;88.10;;;;;;5046107;28;20047;-76
2022/08/31 00:47:05;;;;;;;1.90;0.73;;;15.50;88.30;;;;;;5050927;28;20051;-76
2022/08/31 00:49:34;;;;;;;1.00;0.70;;;15.50;88.30;;;;;;5047356;28;20465;-75
2022/08/31 00:52:14;;;;;;;0.52;0.50;;;15.50;88.60;;;;;;5047586;28;20044;-75
2022/08/31 00:54:45;;;;;;;0.90;0.60;;;15.50;88.40;;;;;;5047241;28;20515;-76
2022/08/31 00:57:11;;;;;;;0.95;0.70;;;15.50;88.40;;;;;;5046567;28;20401;-76
2022/08/31 00:59:39;;;;;;;1.13;0.65;;;15.50;88.20;;;;;;5047750;28;20041;-76
2022/08/31 01:02:06;;;;;;;0.98;0.60;;;15.50;88.00;;;;;;5056252;28;20043;-75
2022/08/31 01:04:32;;;;;;;0.80;0.60;;;15.50;87.80;;;;;;5056182;28;20079;-76
2022/08/31 01:06:58;;;;;;;1.10;0.65;;;15.40;87.40;;;;;;5048587;28;20037;-76
2022/08/31 01:09:26;;;;;;;1.05;0.65;;;15.40;87.00;;;;;;5043379;28;20048;-77
2022/08/31 01:11:53;;;;;;;0.60;0.60;;;15.50;87.00;;;;;;5046362;28;20119;-76
2022/08/31 01:14:19;;;;;;;0.88;0.50;;;15.40;86.50;;;;;;5030006;28;20048;-75
2022/08/31 01:16:49;;;;;;;0.30;0.30;;;15.30;86.00;;;;;;5034812;28;20662;-76
2022/08/31 01:19:31;;;;;;;0.47;0.45;;;15.40;85.10;;;;;;5044303;28;20056;-76
2022/08/31 01:22:29;;;;;;;0.50;0.50;;;15.40;84.00;;;;;;5018161;28;20491;-75
2022/08/31 01:24:56;;;;;;;1.35;0.52;;;15.50;84.10;;;;;;5039768;28;20037;-75
2022/08/31 01:27:26;;;;;;;1.27;0.60;;;15.50;83.10;;;;;;5030566;28;20040;-75
2022/08/31 01:29:51;;;;;;;0.57;0.40;;;15.50;82.40;;;;;;5044974;28;20074;-76
2022/08/31 01:32:17;;;;;;;0.80;0.63;;;15.50;82.30;;;;;;5050838;28;20032;-76
2022/08/31 01:34:43;;;;;;;0.52;0.45;;;15.50;82.00;;;;;;5039114;28;20044;-76
2022/08/31 01:37:10;;;;;;;0.38;0.35;;;15.40;81.60;;;;;;5035933;28;20037;-75
2022/08/31 01:39:35;;;;;;;0.85;0.38;;;15.40;81.00;;;;;;5034386;28;20041;-76
2022/08/31 01:42:01;;;;;;;0.30;0.30;;;15.30;80.70;;;;;;5051209;28;20052;-76
2022/08/31 01:44:27;;;;;;;1.40;0.60;;;15.40;80.60;;;;;;5035484;28;20040;-76
2022/08/31 01:46:54;;;;;;;0.98;0.40;;;15.40;80.40;;;;;;5034630;28;20051;-76
2022/08/31 01:49:21;;;;;;;1.30;0.40;;;15.30;80.40;;;;;;5024649;28;20040;-76
2022/08/31 01:51:49;;;;;;;0.70;0.40;;;15.20;80.00;;;;;;5055247;28;20044;-76
2022/08/31 01:54:15;;;;;;;0.40;0.40;;;15.20;79.90;;;;;;5052832;28;20048;-76
2022/08/31 01:56:44;;;;;;;0.73;0.52;;;15.20;79.70;;;;;;5042861;28;20044;-75
2022/08/31 01:59:13;;;;;;;0.57;0.45;;;15.10;79.40;;;;;;5040580;28;20543;-76
2022/08/31 02:01:43;;;;;;;1.38;0.43;;;15.10;79.50;;;;;;5044312;28;20117;-76
2022/08/31 02:04:10;;;;;;;0.40;0.40;;;15.00;79.10;;;;;;5018452;28;20040;-75
2022/08/31 02:06:39;;;;;;;0.43;0.40;;;15.00;78.90;;;;;;5034600;28;20048;-75
2022/08/31 02:09:05;;;;;;;0.30;0.30;;;14.90;78.60;;;;;;5044871;28;20040;-76
2022/08/31 02:11:31;;;;;;;0.60;0.30;;;15.00;78.70;;;;;;5046216;28;20099;-76
2022/08/31 02:13:57;;;;;;;0.68;0.40;;;14.90;78.70;;;;;;5034986;28;20033;-75
2022/08/31 02:16:23;;;;;;;0.50;0.30;;;14.80;78.50;;;;;;5041271;28;20437;-76
2022/08/31 02:18:48;;;;;;;0.40;0.30;;;14.80;78.50;;;;;;5045223;28;20067;-76
2022/08/31 02:21:14;;;;;;;0.63;0.40;;;14.70;78.30;;;;;;5051775;28;20036;-76
2022/08/31 02:23:40;;;;;;;0.35;0.35;;;14.80;78.40;;;;;;5037603;28;20037;-76
2022/08/31 02:26:06;;;;;;;0.40;0.40;;;14.70;78.50;;;;;;5040435;28;20080;-76
2022/08/31 02:28:31;;;;;;;0.68;0.50;;;14.70;78.60;;;;;;5025104;28;20069;-76
2022/08/31 02:30:57;;;;;;;1.00;0.38;;;14.60;78.70;;;;;;5054545;28;20039;-76
2022/08/31 02:33:26;;;;;;;0.50;0.50;;;14.60;78.90;;;;;;5037935;28;20565;-76
2022/08/31 02:35:52;;;;;;;0.30;0.30;;;14.50;79.00;;;;;;5037788;28;20032;-77
2022/08/31 02:38:18;;;;;;;0.45;0.45;;;14.50;79.10;;;;;;5038255;28;20471;-76
2022/08/31 02:40:43;;;;;;;0.57;0.40;;;14.40;79.20;;;;;;5045886;28;20083;-76
2022/08/31 02:43:10;;;;;;;0.52;0.40;;;14.40;79.30;;;;;;5045516;28;20497;-76
2022/08/31 02:45:37;;;;;;;0.30;0.30;;;14.30;79.40;;;;;;5046187;28;20390;-76
2022/08/31 02:48:04;;;;;;;0.57;0.40;;;14.30;79.60;;;;;;5039759;28;20041;-76
2022/08/31 02:50:30;;;;;;;0.82;0.50;;;14.30;79.80;;;;;;5042312;28;20076;-76
2022/08/31 02:52:56;;;;;;;0.38;0.30;;;14.20;80.10;;;;;;5017718;28;20490;-75
2022/08/31 02:55:23;;;;;;;0.60;0.40;;;14.10;80.30;;;;;;5034229;28;20032;-76
2022/08/31 02:57:50;;;;;;;0.45;0.40;;;14.10;80.50;;;;;;5032796;28;20120;-76
2022/08/31 03:00:17;;;;;;;0.30;0.30;;;14.00;80.70;;;;;;5042303;28;20037;-76
2022/08/31 03:02:42;;;;;;;0.40;0.40;;;13.90;81.10;;;;;;5016869;28;20044;-76
2022/08/31 03:05:09;;;;;;;0.38;0.35;;;13.90;81.40;;;;;;5030345;28;20037;-76
2022/08/31 03:07:36;;;;;;;0.55;0.45;;;13.80;81.60;;;;;;5029496;28;20514;-76
2022/08/31 03:10:04;;;;;;;0.40;0.40;;;13.70;81.70;;;;;;5036381;28;20498;-76
2022/08/31 03:12:29;;;;;;;0.73;0.50;;;13.70;82.10;;;;;;5017759;28;20041;-76
2022/08/31 03:14:55;;;;;;;0.73;0.40;;;13.60;82.30;;;;;;5033157;28;20036;-76
2022/08/31 03:17:21;;;;;;;0.45;0.43;;;13.60;82.50;;;;;;5039807;28;20112;-76
2022/08/31 03:19:46;;;;;;;0.60;0.38;;;13.60;83.10;;;;;;5052617;28;20040;-76
2022/08/31 03:22:13;;;;;;;0.70;0.50;;;13.50;83.20;;;;;;5053853;28;20060;-76
2022/08/31 03:24:39;;;;;;;0.43;0.40;;;13.40;83.10;;;;;;5037427;28;20023;-75
2022/08/31 03:27:04;;;;;;;0.30;0.30;;;13.40;83.40;;;;;;5039047;28;20046;-75
2022/08/31 03:29:30;;;;;;;0.43;0.30;;;13.40;83.30;;;;;;5039102;28;20029;-75
2022/08/31 03:31:56;;;;;;;0.55;0.40;;;13.40;83.50;;;;;;5037018;28;20501;-75
2022/08/31 03:34:21;;;;;;;0.70;0.40;;;13.30;83.50;;;;;;5047170;28;20044;-75
2022/08/31 03:36:47;;;;;;;0.57;0.40;;;13.30;84.50;;;;;;5043354;28;20040;-75
2022/08/31 03:39:12;;;;;;;0.30;0.30;;;13.20;83.90;;;;;;5036586;28;20044;-78
2022/08/31 03:41:38;;;;;;;0.50;0.50;;;13.10;84.00;;;;;;5033712;28;20123;-75
2022/08/31 03:44:04;;;;;;;0.43;0.40;;;13.10;84.20;;;;;;5033643;28;20037;-75
2022/08/31 03:46:32;;;;;;;0.77;0.50;;;13.10;84.40;;;;;;5030084;28;20493;-75
2022/08/31 03:49:00;;;;;;;0.52;0.30;;;12.90;84.50;;;;;;5026736;28;20410;-75
2022/08/31 03:51:26;;;;;;;1.02;0.50;;;13.00;84.90;;;;;;5028679;28;20037;-75
2022/08/31 03:53:52;;;;;;;0.63;0.47;;;12.90;85.20;;;;;;5049175;28;20047;-76
2022/08/31 03:56:17;;;;;;;0.40;0.40;;;12.90;85.60;;;;;;5025499;28;20033;-75
2022/08/31 03:58:43;;;;;;;0.73;0.50;;;12.80;85.50;;;;;;5042360;28;20048;-75
2022/08/31 04:01:11;;;;;;;0.82;0.50;;;12.80;85.70;;;;;;5034849;28;20036;-75
2022/08/31 04:03:37;;;;;;;0.73;0.50;;;12.80;85.90;;;;;;5053410;28;20037;-75
2022/08/31 04:06:07;;;;;;;0.38;0.38;;;12.70;86.60;;;;;;5053590;28;20059;-75
2022/08/31 04:08:33;;;;;;;0.55;0.50;;;12.70;86.80;;;;;;5026421;28;20044;-75
2022/08/31 04:10:58;;;;;;;0.40;0.40;;;12.60;86.90;;;;;;5043244;28;20037;-75
2022/08/31 04:13:24;;;;;;;0.60;0.50;;;12.60;87.30;;;;;;5024495;28;20034;-75
2022/08/31 04:15:50;;;;;;;0.55;0.50;;;12.60;87.40;;;;;;5053056;28;20044;-75
2022/08/31 04:18:15;;;;;;;0.85;0.60;;;12.50;87.90;;;;;;5039294;28;20128;-75
2022/08/31 04:20:41;;;;;;;0.50;0.47;;;12.50;88.10;;;;;;5030183;28;20496;-75
2022/08/31 04:23:08;;;;;;;0.55;0.55;;;12.50;88.80;;;;;;5057317;28;20102;-75
2022/08/31 04:25:39;;;;;;;1.15;0.50;;;12.40;88.90;;;;;;5040482;28;20050;-75
2022/08/31 04:28:07;;;;;;;0.70;0.60;;;12.40;89.00;;;;;;5023993;28;20079;-75
2022/08/31 04:30:36;;;;;;;0.80;0.43;;;12.30;90.00;;;;;;5046570;28;20120;-75
2022/08/31 04:33:01;;;;;;;2.05;0.60;;;12.30;90.40;;;;;;5037206;28;20029;-75
2022/08/31 04:35:27;;;;;;;0.70;0.50;;;12.30;90.20;;;;;;5036844;28;20040;-75
2022/08/31 04:37:53;;;;;;;0.70;0.40;;;12.20;90.50;;;;;;5023126;28;20048;-75
2022/08/31 04:40:19;;;;;;;0.60;0.60;;;12.20;90.80;;;;;;5022472;28;20044;-75
2022/08/31 04:42:48;;;;;;;1.45;0.70;;;12.20;91.00;;;;;;5035462;28;20471;-75
2022/08/31 04:45:15;;;;;;;1.05;0.60;;;12.10;91.20;;;;;;5034475;28;20186;-75
2022/08/31 04:47:41;;;;;;;1.23;0.63;;;12.10;92.20;;;;;;5031719;28;20509;-75
2022/08/31 04:50:12;;;;;;;0.60;0.60;;;12.00;92.20;;;;;;5036718;28;20071;-75
2022/08/31 04:52:38;;;;;;;0.75;0.60;;;11.90;92.70;;;;;;5034721;28;20042;-75
2022/08/31 04:55:04;;;;;;;0.50;0.50;;;11.90;93.20;;;;;;5016668;28;20044;-75
2022/08/31 04:57:32;;;;;;;0.95;0.60;;;11.90;93.90;;;;;;5050410;28;20383;-75
2022/08/31 04:59:58;;;;;;;0.70;0.63;;;11.90;94.40;;;;;;5043761;28;20044;-76
2022/08/31 05:02:23;;;;;;;1.00;0.70;;;11.90;95.20;;;;;;5046430;28;20445;-75
2022/08/31 05:04:49;;;;;;;0.80;0.65;;;11.90;96.20;;;;;;5031366;28;20040;-75
2022/08/31 05:07:14;;;;;;;0.57;0.57;;;11.90;96.40;;;;;;5056025;28;20066;-75
2022/08/31 05:09:40;;;;;;;0.75;0.73;;;11.90;97.10;;;;;;5043437;28;20043;-76
2022/08/31 05:12:06;;;;;;;1.27;0.70;;;12.00;97.90;;;;;;5046251;28;20039;-75
2022/08/31 05:14:31;;;;;;;0.90;0.70;;;12.00;98.50;;;;;;5039143;28;20499;-75
2022/08/31 05:17:00;;;;;;;0.75;0.60;;;12.00;99.20;;;;;;5019164;28;20068;-75
2022/08/31 05:19:25;;;;;;;0.90;0.75;;;12.00;99.30;;;;;;5018823;28;20041;-75
2022/08/31 05:21:51;;;;;;;0.90;0.77;;;12.00;99.90;;;;;;5055493;28;20524;-75
2022/08/31 05:24:21;;;;;;;2.90;0.95;;;12.10;99.90;;;;;;5049753;28;20409;-75
2022/08/31 05:26:49;;;;;;;0.73;0.70;;;12.10;99.90;;;;;;5034097;28;20090;-75
2022/08/31 05:29:18;;;;;;;0.90;0.80;;;12.10;99.90;;;;;;5034953;28;20041;-75
2022/08/31 05:31:44;;;;;;;1.00;0.90;;;12.10;99.90;;;;;;5035593;28;20120;-75
2022/08/31 05:34:11;;;;;;;1.38;0.80;;;12.10;99.90;;;;;;5035723;28;20045;-75
2022/08/31 05:36:38;;;;;;;1.40;0.70;;;12.20;99.90;;;;;;5034814;28;20103;-75
2022/08/31 05:39:08;;;;;;;1.33;0.90;;;12.20;99.90;;;;;;5041171;28;20102;-76
2022/08/31 05:41:34;;;;;;;0.80;0.80;;;12.20;99.90;;;;;;5043881;28;20043;-75
2022/08/31 05:44:02;;;;;;;0.80;0.80;;;12.20;99.90;;;;;;5019336;28;20045;-75
2022/08/31 05:46:28;;;;;;;1.00;0.90;;;12.10;99.90;;;;;;5031054;28;20048;-76
2022/08/31 05:48:54;;;;;;;1.15;0.80;;;12.20;99.90;;;;;;5031823;28;20052;-77
2022/08/31 05:51:20;;;;;;;1.20;1.10;;;12.30;99.90;;;;;;5043318;28;20033;-78
2022/08/31 05:53:47;;;;;;;1.42;1.00;;;12.30;99.90;;;;;;5037473;28;20055;-76
2022/08/31 05:56:19;;;;;;;0.82;0.70;;;12.30;99.90;;;;;;5030805;28;20025;-75
2022/08/31 05:58:46;;;;;;;1.52;0.95;;;12.40;99.90;;;;;;5051482;28;20041;-77
2022/08/31 06:01:25;;;;;;;1.13;1.00;;;12.50;99.90;;;;;;5018741;28;20438;-76
2022/08/31 06:03:52;;;;;;;0.80;0.80;;;12.60;99.90;;;;;;5036734;28;20474;-76
2022/08/31 06:06:18;;;;;;;0.80;0.75;;;12.70;99.90;;;;;;5045007;28;20517;-75
2022/08/31 06:08:44;;;;;;;1.25;0.85;;;12.70;99.90;;;;;;5041620;28;20045;-76
2022/08/31 06:11:13;;;;;;;1.27;0.90;;;12.80;99.90;;;;;;5044490;28;20115;-75
2022/08/31 06:13:39;;;;;;;1.88;1.17;;;12.90;99.90;;;;;;5046318;28;20487;-76
2022/08/31 06:16:05;;;;;;;1.20;1.00;;;13.00;99.90;;;;;;5041800;28;20439;-75
2022/08/31 06:18:31;;;;;;;1.20;0.70;;;13.20;99.90;;;;;;5021084;28;20091;-73
2022/08/31 06:21:07;;;;;;;1.30;0.88;;;13.30;99.90;;;;;;5042346;28;20064;-75
2022/08/31 06:23:35;;;;;;;1.30;1.00;;;13.40;99.90;;;;;;5046753;28;20049;-74
2022/08/31 06:26:03;;;;;;;1.20;1.10;;;13.60;99.90;;;;;;5034406;28;20487;-75
2022/08/31 06:28:31;;;;;;;1.52;0.73;;;13.70;99.90;;;;;;5024283;28;20410;-75
2022/08/31 06:30:58;;;;;;;1.42;0.95;;;13.70;99.90;;;;;;5042543;28;20041;-75
2022/08/31 06:33:24;;;;;;;1.50;1.00;;;13.80;99.90;;;;;;5034582;28;20162;-75
2022/08/31 06:35:50;;;;;;;1.17;0.90;;;14.00;99.90;;;;;;5045849;28;20040;-75
2022/08/31 06:38:15;;;;;;;1.77;1.08;;;14.10;99.90;;;;;;5030282;28;20063;-76
2022/08/31 06:40:41;;;;;;;1.25;0.93;;;14.20;99.90;;;;;;5036171;28;20582;-76
2022/08/31 06:43:06;;;;;;;1.27;1.00;;;14.30;99.90;;;;;;5014249;28;20123;-76
2022/08/31 06:45:32;;;;;;;0.85;0.85;;;14.40;99.90;;;;;;5039580;28;20036;-76
2022/08/31 06:47:59;;;;;;;0.90;0.80;;;14.50;99.90;;;;;;5033935;28;20489;-76
2022/08/31 06:50:25;;;;;;;1.05;0.82;;;14.50;99.90;;;;;;5034354;28;20505;-77
2022/08/31 06:52:51;;;;;;;1.30;0.90;;;14.70;99.90;;;;;;5020015;28;20028;-76
2022/08/31 06:55:16;;;;;;;1.00;0.90;;;14.70;99.90;;;;;;5044561;28;20094;-76
2022/08/31 06:57:42;;;;;;;1.27;0.70;;;14.80;99.90;;;;;;5045545;28;20495;-77
2022/08/31 07:00:08;;;;;;;0.88;0.80;;;14.90;99.90;;;;;;5054136;28;20182;-77
2022/08/31 07:02:34;;;;;;;1.27;0.88;;;14.90;99.90;;;;;;5045977;28;20166;-77
2022/08/31 07:05:00;;;;;;;2.20;0.80;;;15.10;99.90;;;;;;5029043;28;20041;-75
2022/08/31 07:07:25;;;;;;;1.02;0.93;;;15.20;99.90;;;;;;5048746;28;20049;-75
2022/08/31 07:09:52;;;;;;;1.20;0.80;;;15.30;98.20;;;;;;5026120;28;20124;-75
2022/08/31 07:12:17;;;;;;;0.98;0.70;;;15.20;98.00;;;;;;5039128;28;20120;-75
2022/08/31 07:14:45;;;;;;;1.42;0.77;;;15.30;97.70;;;;;;5032328;28;20049;-73
2022/08/31 07:17:11;;;;;;;0.68;0.60;;;15.40;97.10;;;;;;5035952;28;20372;-74
2022/08/31 07:19:36;;;;;;;1.80;0.93;;;15.40;96.80;;;;;;5013219;28;20103;-73
2022/08/31 07:22:05;;;;;;;1.40;0.90;;;15.50;96.90;;;;;;5021733;28;20454;-74
2022/08/31 07:24:33;;;;;;;0.77;0.70;;;15.50;97.20;;;;;;5044189;28;20482;-75
2022/08/31 07:27:13;;;;;;;1.27;0.90;;;15.60;97.20;;;;;;5039700;28;20036;-76
2022/08/31 07:29:40;;;;;;;0.75;0.70;;;15.60;96.80;;;;;;5045155;28;20040;-76
2022/08/31 07:32:08;;;;;;;1.55;0.90;;;15.60;96.80;;;;;;5022641;28;20364;-77
2022/08/31 07:34:34;;;;;;;1.33;0.90;;;15.60;96.80;;;;;;5018762;28;20124;-77
2022/08/31 07:42:35;;;;;;;0.85;0.60;;;15.80;95.50;;;;;;5040809;28;20044;-74
2022/08/31 07:45:04;;;;;;;1.20;0.70;;;15.90;95.10;;;;;;5046252;28;20048;-76
2022/08/31 07:47:32;;;;;;;1.73;0.85;;;16.00;94.80;;;;;;5023236;28;20034;-77
2022/08/31 07:49:59;;;;;;;0.80;0.50;;;16.00;93.80;;;;;;5025884;28;20387;-75
2022/08/31 07:52:32;;;;;;;0.65;0.55;;;16.10;93.60;;;;;;5034449;28;20040;-75
2022/08/31 07:55:05;;;;;;;0.73;0.60;;;16.10;93.50;;;;;;5044926;28;20563;-76
2022/08/31 07:57:41;;;;;;;1.27;0.63;;;16.30;93.00;;;;;;5040465;28;20696;-75
2022/08/31 08:00:08;;;;;;;1.00;0.60;;;16.40;92.10;;;;;;5036982;28;20495;-75
2022/08/31 08:02:37;;;;;;;0.85;0.60;;;16.50;91.30;;;;;;5021280;28;20482;-75
2022/08/31 08:05:08;;;;;;;0.80;0.50;;;16.60;91.00;;;;;;5037671;28;20045;-75
2022/08/31 08:07:35;;;;;;;0.98;0.65;;;16.70;90.30;;;;;;5035915;28;20128;-76
2022/08/31 08:10:04;;;;;;;0.82;0.60;;;16.80;90.30;;;;;;5036681;28;20033;-75
2022/08/31 08:12:34;;;;;;;1.23;0.57;;;16.80;90.40;;;;;;5034220;28;20060;-76
2022/08/31 08:15:00;;;;;;;1.35;0.80;;;17.00;90.20;;;;;;5025937;28;20024;-75
2022/08/31 08:17:26;;;;;;;1.35;0.63;;;17.10;89.40;;;;;;5039177;28;20234;-75
2022/08/31 08:19:51;;;;;;;0.95;0.55;;;17.20;88.20;;;;;;5028604;28;20399;-75
2022/08/31 08:22:17;;;;;;;1.15;0.70;;;17.20;87.80;;;;;;5040406;28;20037;-74
2022/08/31 08:24:46;;;;;;;1.15;0.60;;;17.20;87.90;;;;;;5038481;28;20426;-76
2022/08/31 08:27:12;;;;;;;0.82;0.50;;;17.20;87.70;;;;;;5036978;28;20044;-75
2022/08/31 08:29:38;;;;;;;1.17;0.50;;;17.40;86.80;;;;;;5038218;28;20043;-75
2022/08/31 08:32:04;;;;;;;0.73;0.50;;;17.50;86.80;;;;;;5039193;28;20044;-76
2022/08/31 08:34:30;;;;;;;0.65;0.40;;;17.70;86.70;;;;;;5044315;28;20028;-76
2022/08/31 08:36:56;;;;;;;0.55;0.43;;;18.20;85.90;;;;;;5038944;28;20033;-76
2022/08/31 08:39:23;;;;;;;0.52;0.50;;;18.70;81.40;;;;;;5024485;28;20116;-75
2022/08/31 08:41:52;;;;;;;1.08;0.60;;;19.20;80.70;;;;;;5048840;28;20056;-76
2022/08/31 08:44:18;;;;;;;1.75;0.40;;;19.80;81.20;;;;;;5044364;28;20055;-76
2022/08/31 08:46:49;;;;;;;1.13;0.60;;;20.50;79.20;;;;;;5048145;28;20086;-75
2022/08/31 08:49:28;;;;;;;1.35;0.50;;;21.00;75.90;;;;;;5017757;28;20181;-75
2022/08/31 08:52:02;;;;;;;0.70;0.52;;;21.30;72.90;;;;;;5033579;28;20033;-75
2022/08/31 08:54:37;;;;;;;1.25;0.60;;;21.60;73.00;;;;;;5030208;28;20040;-75
2022/08/31 08:57:14;;;;;;;0.52;0.47;;;21.70;70.30;;;;;;5043080;28;20411;-75
2022/08/31 08:59:45;;;;;;;0.70;0.70;;;21.90;69.50;;;;;;5035561;28;20033;-75
2022/08/31 09:02:20;;;;;;;1.95;0.60;;;22.00;68.80;;;;;;5042803;28;20155;-76
2022/08/31 09:04:57;;;;;;;2.00;0.60;;;22.10;69.10;;;;;;5045109;28;20048;-76
2022/08/31 09:08:03;;;;;;;1.92;0.60;;;22.30;66.50;;;;;;5024986;28;20044;-75
2022/08/31 09:10:29;;;;;;;1.33;0.30;;;22.20;67.30;;;;;;5042798;28;20040;-75
2022/08/31 09:13:12;;;;;;;0.93;0.55;;;22.30;66.10;;;;;;5016454;28;20506;-75
2022/08/31 09:15:40;;;;;;;0.77;0.40;;;22.20;64.70;;;;;;5021481;28;20131;-76
2022/08/31 09:18:15;;;;;;;2.17;0.45;;;22.20;67.60;;;;;;5051889;28;20041;-76
2022/08/31 09:20:40;;;;;;;0.38;0.30;;;22.30;66.70;;;;;;5038945;28;20041;-76
2022/08/31 09:23:06;;;;;;;0.68;0.40;;;22.50;64.80;;;;;;5043889;28;20090;-77
2022/08/31 09:25:50;;;;;;;0.90;0.50;;;22.60;66.90;;;;;;5037076;28;20049;-76
2022/08/31 09:28:17;;;;;;;0.80;0.50;;;22.80;63.80;;;;;;5044938;28;20039;-75
2022/08/31 09:30:50;;;;;;;1.15;0.40;;;22.80;63.80;;;;;;5042972;28;20037;-76
2022/08/31 09:33:18;;;;;;;0.47;0.40;;;22.90;63.50;;;;;;5055855;28;20040;-76
2022/08/31 09:35:44;;;;;;;0.30;0.30;;;22.90;63.30;;;;;;5046826;28;20044;-76
2022/08/31 09:38:28;;;;;;;1.52;0.50;;;22.90;60.60;;;;;;5037956;28;20040;-76
2022/08/31 09:40:54;;;;;;;0.50;0.50;;;22.70;61.30;;;;;;5047136;28;20047;-75
2022/08/31 09:43:23;;;;;;;0.57;0.47;;;22.60;62.50;;;;;;5027574;28;20037;-76
2022/08/31 09:46:23;;;;;;;2.30;0.55;;;22.80;61.60;;;;;;5016531;28;20172;-75
2022/08/31 09:48:55;;;;;;;1.10;0.50;;;22.80;61.60;;;;;;5027996;28;20037;-76
2022/08/31 09:51:31;;;;;;;0.55;0.50;;;22.90;62.40;;;;;;5046470;28;20402;-77
2022/08/31 09:57:03;;;;;;;0.88;0.40;;;23.10;61.40;;;;;;5037109;28;20629;-75
2022/08/31 09:59:36;;;;;;;1.52;0.40;;;23.10;60.90;;;;;;5036068;28;20446;-76
2022/08/31 10:02:12;;;;;;;0.77;0.45;;;23.20;59.80;;;;;;5047977;28;20040;-76
2022/08/31 10:04:57;;;;;;;1.13;0.60;;;23.30;59.10;;;;;;5040348;28;20037;-76
2022/08/31 10:07:28;;;;;;;1.52;1.35;;;23.20;60.70;;;;;;5044202;28;20068;-76
2022/08/31 10:10:00;;;;;;;1.08;0.40;;;23.50;58.30;;;;;;5033753;28;20154;-76
2022/08/31 10:12:50;;;;;;;0.93;0.55;;;23.40;58.30;;;;;;5044396;28;20041;-76
2022/08/31 10:15:15;;;;;;;1.05;0.40;;;23.30;58.30;;;;;;5037006;28;20483;-76
2022/08/31 10:17:54;;;;;;;1.67;0.50;;;23.40;58.40;;;;;;5035808;28;20157;-75
2022/08/31 10:20:29;;;;;;;0.60;0.40;;;23.30;60.00;;;;;;5040217;28;20406;-76
2022/08/31 10:23:11;;;;;;;0.45;0.45;;;23.50;60.10;;;;;;5039132;28;20051;-76
2022/08/31 10:25:41;;;;;;;0.47;0.40;;;23.80;58.50;;;;;;5049162;28;20045;-76
2022/08/31 10:28:30;;;;;;;0.70;0.35;;;23.90;57.50;;;;;;5029566;28;20036;-75
2022/08/31 10:30:59;;;;;;;0.50;0.50;;;24.00;56.90;;;;;;5054766;28;20032;-76
2022/08/31 10:36:40;;;;;;;0.68;0.47;;;24.10;56.70;;;;;;5044588;28;20459;-78
2022/08/31 10:39:38;;;;;;;0.80;0.50;;;23.90;57.30;;;;;;5047613;28;20042;-77
2022/08/31 10:42:09;;;;;;;0.68;0.40;;;23.90;58.10;;;;;;5041728;28;20072;-77
2022/08/31 10:44:50;;;;;;;1.20;0.65;;;23.90;57.40;;;;;;5037787;28;20094;-76
2022/08/31 10:47:17;;;;;;;1.23;0.60;;;24.10;57.00;;;;;;5040508;28;20476;-78
2022/08/31 10:49:42;;;;;;;0.47;0.35;;;24.30;57.40;;;;;;5041533;28;20029;-78
2022/08/31 10:52:20;;;;;;;0.55;0.40;;;24.60;55.40;;;;;;5028163;28;20041;-77
2022/08/31 10:55:06;;;;;;;1.20;0.40;;;24.50;55.40;;;;;;5047023;28;20069;-75
2022/08/31 10:57:46;;;;;;;0.60;0.38;;;24.40;54.50;;;;;;5042044;28;20037;-78
2022/08/31 11:03:20;;;;;;;0.60;0.30;;;24.60;54.50;;;;;;5034377;28;20136;-77
2022/08/31 11:06:13;;;;;;;1.20;0.30;;;24.70;54.40;;;;;;5034071;28;20037;-78
2022/08/31 11:09:00;;;;;;;0.80;0.40;;;24.80;53.80;;;;;;5046287;28;20131;-77
2022/08/31 11:12:06;;;;;;;0.82;0.40;;;24.80;54.40;;;;;;5036928;28;20082;-76
2022/08/31 11:15:05;;;;;;;0.70;0.30;;;25.00;55.00;;;;;;4939415;28;20047;-76
2022/08/31 11:17:46;;;;;;;0.40;0.40;;;25.20;53.50;;;;;;5030592;28;20128;-76
2022/08/31 11:20:30;;;;;;;0.50;0.30;;;25.30;53.40;;;;;;5032395;28;20037;-76
2022/08/31 11:23:00;;;;;;;0.52;0.30;;;25.30;54.30;;;;;;5014011;28;20044;-76
2022/08/31 11:25:57;;;;;;;0.35;0.30;;;25.50;53.30;;;;;;5031974;28;20048;-76
2022/08/31 11:28:32;;;;;;;0.57;0.40;;;25.60;52.80;;;;;;5036243;28;20040;-76
2022/08/31 11:31:04;;;;;;;0.35;0.30;;;25.60;53.20;;;;;;5013356;28;20033;-76
2022/08/31 11:33:30;;;;;;;0.53;0.30;;;25.70;52.70;;;;;;5024830;28;20051;-80
2022/08/31 11:36:05;;;;;;;0.43;0.30;;;25.60;53.50;;;;;;5041844;28;20032;-78
2022/08/31 11:38:40;;;;;;;0.55;0.40;;;25.70;52.00;;;;;;5050531;28;20157;-79
2022/08/31 11:41:09;;;;;;;0.90;0.30;;;25.60;52.70;;;;;;5047548;28;20037;-78
2022/08/31 11:43:35;;;;;;;0.20;0.20;;;25.50;52.30;;;;;;5042887;28;20087;-79
2022/08/31 11:46:24;;;;;;;0.30;0.20;;;25.40;51.40;;;;;;5053652;28;20491;-78
2022/08/31 11:48:52;;;;;;;1.00;0.35;;;25.30;51.40;;;;;;5053339;28;20041;-77
2022/08/31 11:51:41;;;;;;;0.40;0.30;;;25.20;52.10;;;;;;5045723;28;20091;-79
2022/08/31 11:54:12;;;;;;;0.63;0.35;;;25.40;51.30;;;;;;5021587;28;20030;-78
2022/08/31 11:56:40;;;;;;;1.50;0.30;;;25.30;51.60;;;;;;5024328;28;20037;-78
2022/08/31 11:59:18;;;;;;;0.93;0.40;;;25.20;52.20;;;;;;5041938;28;20708;-79
2022/08/31 12:01:44;;;;;;;0.45;0.45;;;25.50;50.60;;;;;;5020528;28;20053;-79
2022/08/31 12:04:28;;;;;;;0.50;0.40;;;25.50;51.00;;;;;;5028424;28;20123;-77
2022/08/31 12:07:02;;;;;;;0.93;0.30;;;25.40;50.80;;;;;;5048563;28;20048;-78
2022/08/31 12:09:37;;;;;;;0.47;0.32;;;25.40;50.80;;;;;;5040064;28;20120;-79
2022/08/31 12:12:34;;;;;;;0.40;0.40;;;25.40;51.30;;;;;;5047946;28;20037;-79
2022/08/31 12:15:11;;;;;;;0.77;0.30;;;25.40;50.30;;;;;;5013678;28;20127;-78
2022/08/31 12:18:04;;;;;;;0.50;0.30;;;25.50;50.70;;;;;;5037105;28;20076;-78
2022/08/31 12:24:05;;;;;;;0.45;0.38;;;25.60;49.60;;;;;;5053214;28;20134;-78
2022/08/31 12:26:53;;;;;;;1.23;0.40;;;25.60;49.30;;;;;;5046534;28;20045;-78
2022/08/31 12:29:21;;;;;;;0.38;0.38;;;25.50;49.80;;;;;;5029776;28;20067;-77
2022/08/31 12:31:59;;;;;;;0.95;0.50;;;26.00;49.90;;;;;;5044353;28;20041;-79
2022/08/31 12:34:27;;;;;;;0.77;0.30;;;26.40;50.10;;;;;;5053903;28;20115;-78
2022/08/31 12:36:53;;;;;;;0.75;0.30;;;26.50;49.30;;;;;;5036574;28;20115;-78
2022/08/31 12:39:22;;;;;;;0.88;0.45;;;26.30;49.70;;;;;;5031034;28;20179;-78
2022/08/31 12:41:55;;;;;;;0.88;0.57;;;26.20;48.80;;;;;;5049567;28;20174;-78
2022/08/31 12:44:28;;;;;;;0.93;0.30;;;26.20;49.10;;;;;;5032136;28;20044;-78
2022/08/31 12:47:18;;;;;;;0.85;0.40;;;26.30;49.30;;;;;;5037417;28;20037;-79
2022/08/31 12:49:58;;;;;;;1.30;0.40;;;26.50;49.20;;;;;;5044454;28;20135;-80
2022/08/31 12:52:32;;;;;;;0.70;0.40;;;26.70;49.70;;;;;;5035886;28;20084;-79
2022/08/31 12:55:13;;;;;;;0.40;0.40;;;26.90;48.10;;;;;;5047169;28;20044;-78
2022/08/31 12:57:47;;;;;;;0.60;0.50;;;26.90;48.90;;;;;;5052652;28;20041;-78
2022/08/31 13:00:30;;;;;;;1.33;0.40;;;26.90;49.40;;;;;;5055848;28;20106;-79
2022/08/31 13:03:16;;;;;;;0.65;0.47;;;27.00;49.60;;;;;;5023108;28;20123;-78
2022/08/31 13:05:57;;;;;;;0.43;0.38;;;27.00;49.00;;;;;;5050932;28;20132;-77
2022/08/31 13:08:24;;;;;;;0.77;0.60;;;26.80;47.60;;;;;;5040270;28;20470;-78
2022/08/31 13:10:50;;;;;;;1.00;0.60;;;26.50;48.10;;;;;;5048018;28;20037;-78
2022/08/31 13:13:23;;;;;;;4.10;0.55;;;26.30;49.00;;;;;;5021547;28;20499;-79
2022/08/31 13:15:56;;;;;;;3.05;0.60;;;26.10;49.20;;;;;;5031495;28;20036;-79
2022/08/31 13:18:26;;;;;;;0.93;0.50;;;26.10;49.30;;;;;;5049671;28;20091;-78
2022/08/31 13:20:55;;;;;;;1.27;0.43;;;26.10;48.50;;;;;;5041892;28;20032;-80
2022/08/31 13:23:50;;;;;;;0.30;0.30;;;26.00;48.50;;;;;;5049340;28;20372;-80
2022/08/31 13:26:23;;;;;;;0.50;0.35;;;25.90;49.30;;;;;;5011804;28;20111;-76